createdAt,value
2019-03-22T00:00:49.867Z,-0.33
2019-03-22T00:01:49.868Z,-0.44
2019-03-22T00:02:49.749Z,-0.51
2019-03-22T00:03:49.745Z,-0.48
2019-03-22T00:04:49.837Z,-0.65
2019-03-22T00:05:49.706Z,-0.62
2019-03-22T00:06:49.763Z,-0.52
2019-03-22T00:07:49.695Z,-0.60
2019-03-22T00:08:49.678Z,-0.63
2019-03-22T00:09:49.759Z,-0.65
2019-03-22T00:10:49.699Z,-0.72
2019-03-22T00:11:49.695Z,-0.70
2019-03-22T00:12:49.640Z,-0.77
2019-03-22T00:13:49.656Z,-0.83
2019-03-22T00:14:49.619Z,-0.86
2019-03-22T00:17:17.154Z,-0.68
2019-03-22T00:18:16.277Z,-0.78
2019-03-22T00:19:16.290Z,-0.86
2019-03-22T00:20:16.266Z,-0.78
2019-03-22T00:21:16.283Z,-0.81
2019-03-22T00:22:16.264Z,-0.80
2019-03-22T00:23:16.232Z,-0.83
2019-03-22T00:24:16.214Z,-0.89
2019-03-22T00:25:16.229Z,-0.89
2019-03-22T00:26:16.204Z,-0.92
2019-03-22T00:27:18.118Z,-0.91
2019-03-22T00:28:17.099Z,-0.92
2019-03-22T00:29:16.637Z,-0.94
2019-03-22T00:30:16.206Z,-0.89
2019-03-22T00:31:16.146Z,-1.09
2019-03-22T00:32:16.131Z,-1.05
2019-03-22T00:33:16.127Z,-1.03
2019-03-22T00:34:16.150Z,-1.06
2019-03-22T00:35:16.107Z,-1.03
2019-03-22T00:36:16.107Z,-1.06
2019-03-22T00:37:16.092Z,-1.03
2019-03-22T00:38:16.081Z,-1.07
2019-03-22T00:39:16.088Z,-1.07
2019-03-22T00:40:16.097Z,-1.07
2019-03-22T00:41:16.052Z,-1.07
2019-03-22T00:42:16.612Z,-1.02
2019-03-22T00:43:16.051Z,-1.02
2019-03-22T00:44:16.037Z,-0.92
2019-03-22T00:45:16.004Z,-0.86
2019-03-22T00:46:15.998Z,-0.89
2019-03-22T00:47:15.990Z,-0.86
2019-03-22T00:48:16.031Z,-0.86
2019-03-22T00:49:15.991Z,-0.86
2019-03-22T00:50:17.606Z,-0.94
2019-03-22T00:51:15.942Z,-0.91
2019-03-22T00:52:15.936Z,-1.03
2019-03-22T00:53:15.924Z,-1.06
2019-03-22T00:54:15.959Z,-1.05
2019-03-22T00:55:15.932Z,-1.07
2019-03-22T00:56:15.931Z,-1.15
2019-03-22T00:57:27.721Z,-1.15
2019-03-22T00:58:16.912Z,-1.20
2019-03-22T00:59:18.596Z,-1.21
2019-03-22T01:00:15.857Z,-1.21
2019-03-22T01:01:15.846Z,-1.21
2019-03-22T01:02:15.834Z,-1.20
2019-03-22T01:03:15.831Z,-1.20
2019-03-22T01:04:15.867Z,-1.18
2019-03-22T01:05:15.809Z,-1.28
2019-03-22T01:06:15.829Z,-1.27
2019-03-22T01:07:15.789Z,-1.33
2019-03-22T01:08:15.786Z,-1.27
2019-03-22T01:09:15.797Z,-1.23
2019-03-22T01:10:16.611Z,-1.35
2019-03-22T01:11:16.594Z,-1.31
2019-03-22T01:12:16.592Z,-1.35
2019-03-22T01:13:15.756Z,-1.23
2019-03-22T01:14:16.596Z,-1.28
2019-03-22T01:15:15.707Z,-1.31
2019-03-22T01:16:15.696Z,-1.38
2019-03-22T01:17:15.719Z,-1.45
2019-03-22T01:18:15.685Z,-1.43
2019-03-22T01:19:15.687Z,-1.45
2019-03-22T01:20:15.657Z,-1.46
2019-03-22T01:21:15.642Z,-1.49
2019-03-22T01:22:15.645Z,-1.53
2019-03-22T01:23:15.658Z,-1.51
2019-03-22T01:24:15.611Z,-1.56
2019-03-22T01:25:15.642Z,-1.54
2019-03-22T01:26:16.093Z,-1.57
2019-03-22T01:27:15.604Z,-1.53
2019-03-22T01:28:15.567Z,-1.62
2019-03-22T01:29:15.602Z,-1.63
2019-03-22T01:30:15.689Z,-1.75
2019-03-22T01:31:15.544Z,-1.70
2019-03-22T01:32:15.569Z,-1.77
2019-03-22T01:33:16.094Z,-1.77
2019-03-22T01:34:15.511Z,-1.72
2019-03-22T01:35:15.528Z,-1.74
2019-03-22T01:36:15.498Z,-1.80
2019-03-22T01:37:15.481Z,-1.78
2019-03-22T01:38:15.484Z,-1.75
2019-03-22T01:39:15.499Z,-1.74
2019-03-22T01:40:15.479Z,-1.85
2019-03-22T01:41:15.440Z,-1.90
2019-03-22T01:42:15.429Z,-1.85
2019-03-22T01:43:16.056Z,-1.87
2019-03-22T01:44:15.422Z,-1.77
2019-03-22T01:45:15.437Z,-1.80
2019-03-22T01:46:16.058Z,-1.82
2019-03-22T01:47:16.174Z,-1.95
2019-03-22T01:48:15.449Z,-1.85
2019-03-22T01:49:15.420Z,-1.74
2019-03-22T01:50:15.462Z,-1.85
2019-03-22T01:51:15.339Z,-1.90
2019-03-22T01:52:15.346Z,-1.81
2019-03-22T01:53:15.315Z,-1.80
2019-03-22T01:54:15.321Z,-1.85
2019-03-22T01:55:15.393Z,-1.88
2019-03-22T01:56:15.294Z,-1.88
2019-03-22T01:57:15.314Z,-1.88
2019-03-22T01:58:15.272Z,-1.96
2019-03-22T01:59:15.264Z,-1.88
2019-03-22T02:00:15.278Z,-1.82
2019-03-22T02:01:15.283Z,-1.82
2019-03-22T02:02:15.227Z,-1.85
2019-03-22T02:03:15.213Z,-1.87
2019-03-22T02:04:15.209Z,-1.90
2019-03-22T02:05:15.230Z,-1.87
2019-03-22T02:06:17.051Z,-1.74
2019-03-22T02:07:15.214Z,-1.69
2019-03-22T02:08:15.206Z,-1.72
2019-03-22T02:09:15.154Z,-1.72
2019-03-22T02:10:15.189Z,-1.75
2019-03-22T02:11:15.131Z,-1.74
2019-03-22T02:12:15.120Z,-1.85
2019-03-22T02:13:15.154Z,-1.90
2019-03-22T02:14:16.637Z,-1.84
2019-03-22T02:15:15.103Z,-1.99
2019-03-22T02:16:15.096Z,-1.98
2019-03-22T02:17:15.070Z,-1.98
2019-03-22T02:18:15.069Z,-2.02
2019-03-22T02:19:15.073Z,-2.02
2019-03-22T02:20:15.219Z,-1.99
2019-03-22T02:21:15.085Z,-1.95
2019-03-22T02:22:15.060Z,-2.03
2019-03-22T02:23:15.055Z,-1.99
2019-03-22T02:24:15.029Z,-1.95
2019-03-22T02:25:14.994Z,-1.96
2019-03-22T02:26:14.985Z,-1.90
2019-03-22T02:27:14.982Z,-1.93
2019-03-22T02:28:15.598Z,-1.87
2019-03-22T02:29:15.012Z,-1.88
2019-03-22T02:30:14.959Z,-1.95
2019-03-22T02:31:14.942Z,-1.88
2019-03-22T02:32:14.950Z,-1.84
2019-03-22T02:33:14.917Z,-1.87
2019-03-22T02:34:14.907Z,-1.88
2019-03-22T02:35:27.655Z,-1.98
2019-03-22T02:36:15.881Z,-2.00
2019-03-22T02:37:14.883Z,-2.10
2019-03-22T02:38:14.866Z,-2.10
2019-03-22T02:39:15.146Z,-2.18
2019-03-22T02:40:14.882Z,-2.24
2019-03-22T02:41:14.842Z,-2.14
2019-03-22T02:42:14.838Z,-2.20
2019-03-22T02:43:14.812Z,-2.11
2019-03-22T02:44:14.804Z,-2.13
2019-03-22T02:45:14.829Z,-2.05
2019-03-22T02:46:14.819Z,-2.00
2019-03-22T02:47:14.789Z,-1.92
2019-03-22T02:48:14.767Z,-2.03
2019-03-22T02:49:14.761Z,-2.05
2019-03-22T02:50:18.563Z,-2.03
2019-03-22T02:51:14.741Z,-1.99
2019-03-22T02:52:14.757Z,-2.08
2019-03-22T02:53:14.713Z,-2.06
2019-03-22T02:54:14.733Z,-2.10
2019-03-22T02:55:14.706Z,-2.11
2019-03-22T02:56:14.738Z,-2.17
2019-03-22T02:57:14.698Z,-2.24
2019-03-22T02:58:20.973Z,-2.35
2019-03-22T02:59:15.653Z,-2.36
2019-03-22T03:00:14.677Z,-2.32
2019-03-22T03:01:14.679Z,-2.32
2019-03-22T03:02:14.643Z,-2.26
2019-03-22T03:03:14.610Z,-2.28
2019-03-22T03:04:14.633Z,-2.20
2019-03-22T03:05:14.597Z,-2.23
2019-03-22T03:06:14.710Z,-2.24
2019-03-22T03:07:14.589Z,-2.21
2019-03-22T03:08:14.564Z,-2.20
2019-03-22T03:09:14.549Z,-2.08
2019-03-22T03:10:14.556Z,-1.99
2019-03-22T03:11:14.651Z,-2.14
2019-03-22T03:12:15.174Z,-2.06
2019-03-22T03:13:14.566Z,-2.10
2019-03-22T03:14:14.548Z,-1.98
2019-03-22T03:15:14.523Z,-2.03
2019-03-22T03:16:14.616Z,-2.13
2019-03-22T03:17:14.554Z,-2.11
2019-03-22T03:18:14.517Z,-2.14
2019-03-22T03:19:14.505Z,-2.21
2019-03-22T03:20:14.516Z,-2.18
2019-03-22T03:21:14.610Z,-2.06
2019-03-22T03:22:14.485Z,-2.13
2019-03-22T03:23:14.468Z,-2.06
2019-03-22T03:24:14.460Z,-2.00
2019-03-22T03:25:14.451Z,-2.06
2019-03-22T03:26:14.548Z,-2.14
2019-03-22T03:27:14.414Z,-2.08
2019-03-22T03:28:15.157Z,-2.08
2019-03-22T03:29:14.415Z,-2.13
2019-03-22T03:30:14.439Z,-2.16
2019-03-22T03:31:16.177Z,-2.32
2019-03-22T03:32:14.395Z,-2.35
2019-03-22T03:33:14.466Z,-2.33
2019-03-22T03:34:14.381Z,-2.38
2019-03-22T03:35:14.349Z,-2.40
2019-03-22T03:36:14.414Z,-2.47
2019-03-22T03:37:15.135Z,-2.50
2019-03-22T03:38:14.316Z,-2.57
2019-03-22T03:39:14.299Z,-2.64
2019-03-22T03:40:14.281Z,-2.57
2019-03-22T03:41:14.360Z,-2.61
2019-03-22T03:42:14.386Z,-2.56
2019-03-22T03:43:14.375Z,-2.54
2019-03-22T03:44:14.249Z,-2.54
2019-03-22T03:45:14.252Z,-2.61
2019-03-22T03:46:15.149Z,-2.56
2019-03-22T03:47:14.251Z,-2.58
2019-03-22T03:48:14.209Z,-2.58
2019-03-22T03:49:14.325Z,-2.68
2019-03-22T03:50:14.207Z,-2.69
2019-03-22T03:51:14.170Z,-2.66
2019-03-22T03:52:14.276Z,-2.74
2019-03-22T03:53:15.124Z,-2.78
2019-03-22T03:54:14.155Z,-2.76
2019-03-22T03:55:14.156Z,-2.71
2019-03-22T03:56:14.141Z,-2.63
2019-03-22T03:57:14.214Z,-2.69
2019-03-22T03:58:14.111Z,-2.75
2019-03-22T03:59:14.102Z,-2.75
2019-03-22T04:00:14.100Z,-2.78
2019-03-22T04:01:14.086Z,-2.76
2019-03-22T04:02:14.640Z,-2.90
2019-03-22T04:03:14.130Z,-2.86
2019-03-22T04:04:14.133Z,-2.90
2019-03-22T04:05:14.681Z,-2.94
2019-03-22T04:06:14.029Z,-2.99
2019-03-22T04:07:14.098Z,-2.94
2019-03-22T04:08:14.028Z,-3.05
2019-03-22T04:09:14.005Z,-3.04
2019-03-22T04:10:13.991Z,-3.13
2019-03-22T04:11:13.985Z,-3.22
2019-03-22T04:12:14.165Z,-3.14
2019-03-22T04:13:13.981Z,-3.18
2019-03-22T04:14:13.945Z,-3.28
2019-03-22T04:15:14.013Z,-3.31
2019-03-22T04:16:14.149Z,-3.29
2019-03-22T04:17:13.920Z,-3.22
2019-03-22T04:18:13.898Z,-3.28
2019-03-22T04:19:13.932Z,-3.20
2019-03-22T04:20:13.896Z,-3.23
2019-03-22T04:21:13.950Z,-3.20
2019-03-22T04:22:13.889Z,-3.26
2019-03-22T04:23:13.882Z,-3.20
2019-03-22T04:24:13.844Z,-3.23
2019-03-22T04:25:13.845Z,-3.29
2019-03-22T04:26:14.046Z,-3.20
2019-03-22T04:27:13.821Z,-3.18
2019-03-22T04:28:13.823Z,-3.26
2019-03-22T04:29:13.789Z,-3.22
2019-03-22T04:30:13.795Z,-3.13
2019-03-22T04:31:13.867Z,-3.07
2019-03-22T04:32:13.766Z,-3.15
2019-03-22T04:33:13.764Z,-3.14
2019-03-22T04:34:13.783Z,-3.13
2019-03-22T04:35:13.749Z,-3.08
2019-03-22T04:36:13.787Z,-3.15
2019-03-22T04:37:13.728Z,-3.22
2019-03-22T04:38:15.640Z,-3.23
2019-03-22T04:39:14.627Z,-3.17
2019-03-22T04:40:13.725Z,-3.23
2019-03-22T04:41:13.754Z,-3.32
2019-03-22T04:42:13.680Z,-3.31
2019-03-22T04:43:13.663Z,-3.43
2019-03-22T04:44:13.673Z,-3.47
2019-03-22T04:45:13.645Z,-3.33
2019-03-22T04:46:13.732Z,-3.41
2019-03-22T04:47:13.629Z,-3.47
2019-03-22T04:48:13.621Z,-3.33
2019-03-22T04:49:13.626Z,-3.47
2019-03-22T04:50:13.608Z,-3.47
2019-03-22T04:51:14.119Z,-3.56
2019-03-22T04:52:13.696Z,-3.46
2019-03-22T04:53:13.561Z,-3.29
2019-03-22T04:54:13.585Z,-3.23
2019-03-22T04:55:13.520Z,-3.25
2019-03-22T04:56:15.098Z,-3.11
2019-03-22T04:57:14.131Z,-3.08
2019-03-22T04:58:13.527Z,-3.25
2019-03-22T04:59:19.472Z,-3.20
2019-03-22T05:00:13.465Z,-3.17
2019-03-22T05:01:13.442Z,-3.31
2019-03-22T05:02:13.440Z,-3.20
2019-03-22T05:03:13.437Z,-3.22
2019-03-22T05:04:13.438Z,-3.22
2019-03-22T05:05:13.469Z,-3.13
2019-03-22T05:06:13.396Z,-3.14
2019-03-22T05:07:13.386Z,-3.14
2019-03-22T05:08:13.375Z,-3.18
2019-03-22T05:09:13.366Z,-3.17
2019-03-22T05:10:13.351Z,-3.23
2019-03-22T05:11:13.362Z,-3.28
2019-03-22T05:12:14.280Z,-3.28
2019-03-22T05:13:13.348Z,-3.23
2019-03-22T05:14:13.308Z,-3.23
2019-03-22T05:15:13.301Z,-3.11
2019-03-22T05:16:13.294Z,-3.14
2019-03-22T05:17:13.280Z,-2.94
2019-03-22T05:18:13.270Z,-2.92
2019-03-22T05:19:13.297Z,-2.76
2019-03-22T05:20:13.289Z,-2.72
2019-03-22T05:21:13.243Z,-2.71
2019-03-22T05:22:13.237Z,-2.68
2019-03-22T05:23:13.245Z,-2.76
2019-03-22T05:24:13.213Z,-2.81
2019-03-22T05:25:13.199Z,-2.92
2019-03-22T05:26:13.185Z,-2.85
2019-03-22T05:27:13.208Z,-2.94
2019-03-22T05:28:13.175Z,-2.96
2019-03-22T05:29:13.157Z,-3.11
2019-03-22T05:30:13.154Z,-3.18
2019-03-22T05:31:13.144Z,-3.23
2019-03-22T05:32:13.182Z,-3.36
2019-03-22T05:33:13.122Z,-3.43
2019-03-22T05:34:13.119Z,-3.47
2019-03-22T05:35:13.102Z,-3.54
2019-03-22T05:36:13.087Z,-3.46
2019-03-22T05:37:13.106Z,-3.46
2019-03-22T05:38:13.065Z,-3.43
2019-03-22T05:39:13.060Z,-3.46
2019-03-22T05:40:13.050Z,-3.44
2019-03-22T05:41:13.868Z,-3.43
2019-03-22T05:42:13.026Z,-3.46
2019-03-22T05:43:13.017Z,-3.43
2019-03-22T05:44:13.011Z,-3.36
2019-03-22T05:45:13.002Z,-3.26
2019-03-22T05:46:12.998Z,-3.23
2019-03-22T05:47:13.005Z,-3.11
2019-03-22T05:48:12.971Z,-3.11
2019-03-22T05:49:12.968Z,-3.07
2019-03-22T05:50:13.007Z,-2.85
2019-03-22T05:51:12.943Z,-2.72
2019-03-22T05:52:12.961Z,-2.71
2019-03-22T05:53:12.916Z,-2.54
2019-03-22T05:54:12.935Z,-2.53
2019-03-22T05:55:12.928Z,-2.35
2019-03-22T05:56:12.889Z,-2.10
2019-03-22T05:57:13.962Z,-2.02
2019-03-22T05:58:12.870Z,-1.95
2019-03-22T05:59:12.856Z,-1.70
2019-03-22T06:00:12.859Z,-1.53
2019-03-22T06:01:12.846Z,-1.33
2019-03-22T06:02:12.834Z,-1.23
2019-03-22T06:03:12.879Z,-1.06
2019-03-22T06:04:12.811Z,-1.00
2019-03-22T06:05:12.802Z,-0.84
2019-03-22T06:06:12.798Z,-0.73
2019-03-22T06:07:13.583Z,-0.60
2019-03-22T06:08:13.121Z,-0.45
2019-03-22T06:09:12.794Z,-0.29
2019-03-22T06:10:12.752Z,-0.24
2019-03-22T06:11:12.736Z,-0.24
2019-03-22T06:12:12.727Z,-0.13
2019-03-22T06:13:12.722Z,-0.01
2019-03-22T06:14:12.709Z,0.07
2019-03-22T06:15:12.739Z,0.16
2019-03-22T06:16:12.689Z,0.16
2019-03-22T06:17:12.676Z,0.36
2019-03-22T06:18:12.690Z,0.31
2019-03-22T06:19:12.654Z,0.51
2019-03-22T06:20:12.672Z,0.67
2019-03-22T06:21:12.635Z,0.79
2019-03-22T06:22:12.637Z,0.94
2019-03-22T06:23:12.637Z,0.98
2019-03-22T06:24:12.609Z,1.10
2019-03-22T06:25:12.599Z,1.19
2019-03-22T06:26:12.585Z,1.33
2019-03-22T06:27:12.581Z,1.46
2019-03-22T06:28:12.587Z,1.57
2019-03-22T06:29:12.573Z,1.68
2019-03-22T06:30:12.537Z,1.80
2019-03-22T06:31:12.568Z,1.91
2019-03-22T06:32:12.525Z,1.87
2019-03-22T06:33:12.550Z,1.97
2019-03-22T06:34:12.509Z,2.10
2019-03-22T06:35:12.486Z,2.19
2019-03-22T06:36:12.484Z,2.34
2019-03-22T06:37:12.471Z,2.51
2019-03-22T06:38:12.490Z,2.58
2019-03-22T06:39:12.454Z,2.61
2019-03-22T06:40:12.446Z,2.82
2019-03-22T06:41:12.425Z,2.73
2019-03-22T06:42:12.417Z,2.82
2019-03-22T06:43:12.432Z,2.92
2019-03-22T06:44:12.398Z,2.97
2019-03-22T06:45:12.387Z,3.16
2019-03-22T06:46:12.386Z,3.25
2019-03-22T06:47:12.365Z,3.33
2019-03-22T06:48:12.380Z,3.50
2019-03-22T06:49:12.348Z,3.71
2019-03-22T06:50:12.341Z,3.70
2019-03-22T06:51:12.325Z,3.85
2019-03-22T06:52:12.316Z,4.04
2019-03-22T06:53:12.344Z,4.15
2019-03-22T06:54:12.298Z,4.29
2019-03-22T06:55:12.282Z,4.39
2019-03-22T06:56:12.274Z,4.52
2019-03-22T06:57:12.261Z,4.65
2019-03-22T06:58:12.286Z,4.77
2019-03-22T06:59:12.270Z,4.89
2019-03-22T07:00:12.286Z,5.07
2019-03-22T07:01:12.233Z,5.19
2019-03-22T07:02:12.213Z,5.32
2019-03-22T07:03:12.237Z,5.37
2019-03-22T07:04:12.192Z,5.49
2019-03-22T07:05:13.552Z,5.56
2019-03-22T07:06:12.173Z,5.52
2019-03-22T07:07:12.182Z,5.55
2019-03-22T07:08:12.176Z,5.70
2019-03-22T07:09:12.144Z,5.63
2019-03-22T07:10:12.135Z,5.67
2019-03-22T07:11:12.153Z,5.68
2019-03-22T07:12:12.115Z,5.78
2019-03-22T07:13:12.131Z,5.77
2019-03-22T07:14:12.086Z,5.91
2019-03-22T07:15:12.088Z,6.00
2019-03-22T07:16:12.067Z,6.25
2019-03-22T07:17:12.059Z,6.33
2019-03-22T07:18:12.081Z,6.50
2019-03-22T07:19:12.039Z,6.80
2019-03-22T07:20:12.041Z,7.01
2019-03-22T07:21:12.022Z,7.13
2019-03-22T07:22:12.002Z,7.26
2019-03-22T07:23:12.025Z,7.31
2019-03-22T07:24:11.989Z,7.49
2019-03-22T07:25:11.968Z,7.62
2019-03-22T07:26:11.962Z,7.69
2019-03-22T07:27:11.960Z,7.77
2019-03-22T07:28:11.959Z,8.00
2019-03-22T07:29:11.925Z,8.25
2019-03-22T07:30:18.506Z,8.26
2019-03-22T07:31:12.903Z,8.42
2019-03-22T07:32:11.893Z,8.50
2019-03-22T07:33:11.999Z,8.75
2019-03-22T07:34:11.895Z,8.86
2019-03-22T07:35:11.881Z,8.90
2019-03-22T07:36:11.883Z,9.04
2019-03-22T07:37:11.840Z,9.25
2019-03-22T07:38:11.868Z,9.52
2019-03-22T07:39:12.578Z,9.56
2019-03-22T07:40:11.850Z,9.64
2019-03-22T07:41:11.856Z,9.86
2019-03-22T07:42:11.796Z,9.91
2019-03-22T07:43:12.618Z,10.01
2019-03-22T07:44:11.774Z,10.33
2019-03-22T07:45:11.790Z,10.44
2019-03-22T07:46:11.763Z,10.44
2019-03-22T07:47:11.741Z,10.40
2019-03-22T07:48:11.764Z,10.60
2019-03-22T07:49:11.717Z,10.71
2019-03-22T07:50:13.621Z,10.81
2019-03-22T07:51:11.747Z,10.88
2019-03-22T07:52:11.688Z,10.86
2019-03-22T07:53:11.763Z,11.02
2019-03-22T07:54:11.673Z,11.17
2019-03-22T07:55:14.586Z,11.38
2019-03-22T07:56:14.625Z,11.57
2019-03-22T07:57:11.649Z,11.68
2019-03-22T07:58:11.657Z,11.56
2019-03-22T07:59:11.660Z,11.67
2019-03-22T08:00:11.598Z,11.78
2019-03-22T08:01:14.590Z,12.12
2019-03-22T08:02:11.574Z,12.24
2019-03-22T08:03:11.603Z,12.41
2019-03-22T08:04:11.552Z,12.57
2019-03-22T08:05:14.084Z,12.81
2019-03-22T08:06:11.541Z,12.89
2019-03-22T08:07:13.151Z,13.11
2019-03-22T08:08:11.574Z,13.17
2019-03-22T08:09:11.540Z,13.27
2019-03-22T08:10:11.543Z,13.40
2019-03-22T08:11:11.717Z,13.25
2019-03-22T08:12:11.519Z,13.37
2019-03-22T08:13:11.488Z,13.56
2019-03-22T08:14:11.457Z,13.70
2019-03-22T08:15:11.454Z,13.83
2019-03-22T08:16:11.430Z,13.92
2019-03-22T08:17:11.419Z,13.92
2019-03-22T08:18:11.442Z,14.04
2019-03-22T08:19:12.095Z,14.16
2019-03-22T08:20:11.426Z,14.28
2019-03-22T08:21:11.414Z,14.19
2019-03-22T08:22:11.364Z,14.19
2019-03-22T08:23:12.125Z,14.32
2019-03-22T08:24:11.369Z,14.64
2019-03-22T08:25:11.346Z,14.65
2019-03-22T08:26:11.341Z,14.56
2019-03-22T08:27:13.106Z,14.52
2019-03-22T08:28:11.302Z,14.43
2019-03-22T08:29:11.352Z,14.71
2019-03-22T08:30:13.110Z,14.98
2019-03-22T08:31:12.087Z,15.03
2019-03-22T08:32:11.313Z,15.21
2019-03-22T08:33:12.058Z,15.43
2019-03-22T08:34:11.295Z,15.26
2019-03-22T08:35:11.290Z,14.83
2019-03-22T08:36:11.212Z,14.94
2019-03-22T08:37:11.200Z,15.01
2019-03-22T08:38:11.275Z,15.06
2019-03-22T08:39:11.248Z,15.33
2019-03-22T08:40:11.176Z,15.64
2019-03-22T08:41:11.162Z,15.79
2019-03-22T08:42:11.216Z,15.96
2019-03-22T08:43:11.182Z,15.96
2019-03-22T08:44:11.133Z,15.46
2019-03-22T08:45:11.475Z,15.64
2019-03-22T08:46:11.113Z,15.66
2019-03-22T08:47:11.173Z,15.60
2019-03-22T08:48:11.108Z,15.46
2019-03-22T08:49:11.202Z,15.38
2019-03-22T08:50:11.144Z,15.89
2019-03-22T08:51:11.076Z,16.16
2019-03-22T08:52:11.076Z,16.35
2019-03-22T08:53:11.037Z,16.18
2019-03-22T08:54:11.056Z,16.14
2019-03-22T08:55:11.015Z,15.94
2019-03-22T08:56:11.047Z,15.88
2019-03-22T08:57:11.017Z,16.03
2019-03-22T08:58:10.991Z,16.53
2019-03-22T08:59:13.360Z,16.50
2019-03-22T09:00:11.045Z,16.74
2019-03-22T09:01:10.970Z,17.20
2019-03-22T09:02:10.961Z,17.41
2019-03-22T09:03:10.929Z,17.67
2019-03-22T09:04:10.952Z,17.59
2019-03-22T09:05:10.941Z,17.71
2019-03-22T09:06:10.919Z,17.84
2019-03-22T09:07:10.879Z,17.32
2019-03-22T09:08:12.612Z,17.48
2019-03-22T09:09:10.910Z,17.28
2019-03-22T09:10:10.904Z,17.66
2019-03-22T09:11:10.844Z,18.22
2019-03-22T09:12:10.897Z,18.57
2019-03-22T09:13:10.869Z,18.54
2019-03-22T09:14:11.554Z,18.13
2019-03-22T09:15:11.599Z,17.95
2019-03-22T09:16:10.856Z,17.92
2019-03-22T09:17:10.784Z,18.06
2019-03-22T09:18:10.841Z,18.31
2019-03-22T09:19:10.759Z,18.67
2019-03-22T09:20:10.842Z,18.86
2019-03-22T09:21:10.737Z,18.73
2019-03-22T09:22:10.760Z,18.31
2019-03-22T09:23:10.750Z,18.84
2019-03-22T09:24:10.783Z,19.47
2019-03-22T09:25:10.705Z,19.73
2019-03-22T09:26:10.695Z,19.90
2019-03-22T09:27:10.692Z,20.16
2019-03-22T09:28:10.763Z,20.46
2019-03-22T09:29:10.669Z,20.56
2019-03-22T09:30:10.685Z,20.16
2019-03-22T09:31:11.349Z,20.00
2019-03-22T09:32:10.642Z,20.05
2019-03-22T09:33:13.333Z,19.88
2019-03-22T09:34:10.631Z,19.93
2019-03-22T09:35:11.160Z,20.50
2019-03-22T09:36:10.593Z,20.80
2019-03-22T09:37:10.589Z,20.99
2019-03-22T09:38:13.053Z,21.36
2019-03-22T09:39:10.592Z,20.90
2019-03-22T09:40:10.576Z,20.71
2019-03-22T09:41:10.584Z,20.39
2019-03-22T09:42:10.514Z,20.65
2019-03-22T09:43:10.526Z,20.98
2019-03-22T09:44:10.539Z,21.21
2019-03-22T09:45:10.564Z,21.61
2019-03-22T09:46:10.471Z,21.83
2019-03-22T09:47:10.455Z,22.07
2019-03-22T09:48:10.455Z,21.98
2019-03-22T09:49:10.475Z,21.42
2019-03-22T09:50:10.426Z,21.64
2019-03-22T09:51:10.440Z,22.12
2019-03-22T09:52:12.142Z,22.54
2019-03-22T09:53:11.114Z,22.83
2019-03-22T09:54:10.448Z,23.05
2019-03-22T09:55:13.713Z,23.09
2019-03-22T09:56:10.376Z,23.04
2019-03-22T09:57:10.403Z,23.14
2019-03-22T09:58:10.432Z,23.34
2019-03-22T09:59:10.389Z,23.26
2019-03-22T10:00:11.174Z,23.29
2019-03-22T10:01:23.204Z,23.52
2019-03-22T10:02:11.327Z,22.96
2019-03-22T10:03:10.412Z,22.93
2019-03-22T10:04:10.306Z,23.15
2019-03-22T10:05:11.134Z,22.96
2019-03-22T10:06:11.095Z,22.68
2019-03-22T10:07:10.314Z,22.80
2019-03-22T10:08:10.242Z,23.15
2019-03-22T10:09:10.249Z,23.42
2019-03-22T10:10:10.220Z,23.47
2019-03-22T10:11:10.210Z,23.70
2019-03-22T10:12:10.225Z,23.80
2019-03-22T10:13:12.088Z,23.65
2019-03-22T10:14:10.200Z,23.24
2019-03-22T10:15:11.225Z,22.90
2019-03-22T10:16:10.155Z,23.02
2019-03-22T10:17:10.196Z,23.50
2019-03-22T10:18:11.177Z,23.95
2019-03-22T10:19:10.230Z,23.65
2019-03-22T10:20:10.109Z,23.71
2019-03-22T10:21:21.846Z,24.16
2019-03-22T10:22:11.092Z,23.58
2019-03-22T10:23:10.174Z,23.82
2019-03-22T10:24:10.087Z,24.07
2019-03-22T10:25:10.092Z,24.08
2019-03-22T10:26:10.588Z,23.95
2019-03-22T10:27:10.127Z,24.07
2019-03-22T10:28:10.033Z,24.17
2019-03-22T10:29:10.072Z,24.47
2019-03-22T10:30:10.013Z,24.68
2019-03-22T10:31:09.991Z,24.82
2019-03-22T10:32:10.706Z,25.07
2019-03-22T10:34:19.975Z,25.31
2019-03-22T10:35:25.854Z,25.05
2019-03-22T10:36:20.746Z,24.75
2019-03-22T10:37:19.798Z,24.79
2019-03-22T10:38:31.140Z,24.59
2019-03-22T10:39:20.717Z,24.63
2019-03-22T10:40:19.700Z,24.04
2019-03-22T10:41:19.657Z,23.08
2019-03-22T10:42:19.649Z,23.58
2019-03-22T10:43:19.647Z,24.12
2019-03-22T10:44:19.646Z,24.52
2019-03-22T10:45:19.648Z,24.80
2019-03-22T10:46:19.614Z,24.80
2019-03-22T10:47:19.662Z,24.92
2019-03-22T10:48:19.579Z,24.91
2019-03-22T10:49:19.753Z,24.52
2019-03-22T10:50:19.630Z,25.09
2019-03-22T10:51:21.537Z,25.13
2019-03-22T10:52:19.606Z,25.65
2019-03-22T10:53:19.608Z,26.09
2019-03-22T10:54:19.582Z,25.83
2019-03-22T10:55:29.751Z,25.50
2019-03-22T10:56:20.599Z,24.44
2019-03-22T10:57:19.487Z,23.98
2019-03-22T10:58:21.346Z,24.14
2019-03-22T10:59:19.469Z,24.73
2019-03-22T11:00:19.487Z,24.73
2019-03-22T11:01:19.448Z,24.87
2019-03-22T11:02:19.433Z,25.27
2019-03-22T11:03:19.426Z,25.86
2019-03-22T11:04:19.472Z,26.09
2019-03-22T11:05:19.401Z,26.73
2019-03-22T11:06:25.991Z,27.11
2019-03-22T11:07:20.390Z,27.14
2019-03-22T11:08:19.383Z,26.92
2019-03-22T11:09:19.367Z,26.72
2019-03-22T11:10:19.373Z,26.05
2019-03-22T11:11:19.362Z,25.59
2019-03-22T11:12:19.361Z,25.74
2019-03-22T11:13:19.336Z,25.89
2019-03-22T11:14:19.325Z,26.01
2019-03-22T11:15:19.332Z,25.82
2019-03-22T11:16:19.294Z,25.68
2019-03-22T11:17:19.288Z,25.47
2019-03-22T11:18:19.286Z,25.44
2019-03-22T11:19:19.279Z,25.65
2019-03-22T11:20:19.295Z,26.05
2019-03-22T11:21:19.247Z,26.31
2019-03-22T11:22:19.236Z,26.86
2019-03-22T11:23:19.214Z,27.20
2019-03-22T11:24:19.211Z,27.06
2019-03-22T11:25:19.304Z,27.41
2019-03-22T11:26:19.185Z,27.32
2019-03-22T11:27:19.189Z,27.28
2019-03-22T11:28:19.171Z,27.21
2019-03-22T11:29:19.154Z,26.79
2019-03-22T11:30:19.185Z,26.69
2019-03-22T11:31:27.424Z,26.55
2019-03-22T11:32:20.158Z,25.89
2019-03-22T11:33:19.117Z,25.69
2019-03-22T11:34:19.113Z,25.54
2019-03-22T11:35:19.124Z,25.93
2019-03-22T11:36:19.080Z,25.79
2019-03-22T11:37:19.073Z,26.15
2019-03-22T11:38:19.085Z,26.91
2019-03-22T11:39:19.048Z,27.36
2019-03-22T11:40:19.071Z,27.73
2019-03-22T11:41:19.036Z,27.85
2019-03-22T11:42:19.019Z,26.87
2019-03-22T11:43:19.983Z,26.79
2019-03-22T11:44:19.007Z,27.11
2019-03-22T11:45:19.067Z,27.46
2019-03-22T11:46:18.979Z,27.41
2019-03-22T11:47:18.974Z,27.05
2019-03-22T11:48:18.958Z,27.58
2019-03-22T11:49:19.482Z,28.06
2019-03-22T11:50:18.949Z,28.32
2019-03-22T11:51:18.967Z,28.82
2019-03-22T11:52:18.925Z,28.97
2019-03-22T11:53:18.911Z,28.58
2019-03-22T11:54:18.893Z,27.71
2019-03-22T11:55:18.925Z,28.32
2019-03-22T11:56:18.882Z,28.07
2019-03-22T11:57:18.889Z,27.88
2019-03-22T11:58:18.870Z,28.29
2019-03-22T11:59:18.853Z,28.22
2019-03-22T12:00:18.865Z,28.26
2019-03-22T12:01:21.304Z,27.79
2019-03-22T12:02:22.546Z,26.84
2019-03-22T12:03:18.811Z,26.68
2019-03-22T12:04:18.799Z,27.10
2019-03-22T12:05:18.790Z,27.69
2019-03-22T12:06:18.790Z,28.11
2019-03-22T12:07:18.892Z,28.43
2019-03-22T12:08:18.764Z,28.62
2019-03-22T12:09:18.761Z,29.00
2019-03-22T12:10:18.769Z,28.97
2019-03-22T12:11:18.734Z,27.33
2019-03-22T12:12:18.718Z,26.64
2019-03-22T12:13:18.711Z,26.74
2019-03-22T12:14:18.710Z,26.42
2019-03-22T12:15:18.723Z,25.64
2019-03-22T12:16:18.682Z,25.56
2019-03-22T12:17:18.668Z,25.86
2019-03-22T12:18:18.662Z,25.69
2019-03-22T12:19:18.651Z,25.67
2019-03-22T12:20:18.675Z,26.52
2019-03-22T12:21:18.630Z,26.80
2019-03-22T12:22:18.619Z,26.36
2019-03-22T12:23:18.616Z,26.68
2019-03-22T12:24:18.779Z,27.32
2019-03-22T12:25:18.616Z,27.66
2019-03-22T12:26:18.581Z,27.39
2019-03-22T12:27:18.573Z,27.23
2019-03-22T12:28:18.569Z,27.92
2019-03-22T12:29:18.558Z,28.69
2019-03-22T12:30:18.565Z,29.25
2019-03-22T12:31:19.495Z,28.96
2019-03-22T12:32:18.524Z,29.19
2019-03-22T12:33:18.513Z,29.52
2019-03-22T12:34:18.502Z,30.12
2019-03-22T12:35:18.539Z,30.19
2019-03-22T12:36:18.475Z,29.25
2019-03-22T12:37:18.472Z,28.43
2019-03-22T12:38:18.470Z,28.41
2019-03-22T12:39:18.446Z,29.07
2019-03-22T12:40:18.482Z,29.45
2019-03-22T12:41:18.440Z,30.08
2019-03-22T12:42:18.423Z,30.33
2019-03-22T12:43:18.420Z,30.64
2019-03-22T12:44:18.401Z,30.37
2019-03-22T12:45:18.431Z,30.67
2019-03-22T12:46:18.381Z,30.74
2019-03-22T12:47:18.376Z,30.52
2019-03-22T12:48:18.375Z,29.60
2019-03-22T12:49:18.361Z,28.75
2019-03-22T12:50:18.353Z,28.77
2019-03-22T12:51:18.369Z,29.07
2019-03-22T12:52:18.324Z,29.29
2019-03-22T12:53:18.318Z,29.87
2019-03-22T12:54:18.305Z,30.33
2019-03-22T12:55:18.347Z,30.02
2019-03-22T12:56:18.286Z,29.56
2019-03-22T12:57:18.283Z,28.75
2019-03-22T12:58:18.268Z,27.86